Time;durP1;ratioP1;P1;durP2;ratioP2;P2;SDS_P1;SDS_P2;PMS_P1;PMS_P2;Temp;Humidity;BMP_temperature;BMP_pressure;BME280_temperature;BME280_humidity;BME280_pressure;Samples;Min_cycle;Max_cycle;Signal;HPM_P1;HPM_P2
2020/12/26 00:02:16;;;;;;;16.55;8.15;;;1.80;93.40;;;;;;5028393;28;20207;-73
2020/12/26 00:04:42;;;;;;;18.88;8.93;;;1.80;93.50;;;;;;5027288;28;20212;-74
2020/12/26 00:07:08;;;;;;;15.53;7.13;;;1.90;93.30;;;;;;5028085;28;20646;-74
2020/12/26 00:09:33;;;;;;;21.20;9.87;;;1.90;93.30;;;;;;5014286;28;20576;-73
2020/12/26 00:11:59;;;;;;;18.80;9.40;;;1.90;93.50;;;;;;5028738;28;20222;-73
2020/12/26 00:14:28;;;;;;;16.50;8.13;;;1.90;93.60;;;;;;5032268;28;20273;-74
2020/12/26 00:16:55;;;;;;;16.35;7.25;;;1.90;93.70;;;;;;5034368;28;20715;-73
2020/12/26 00:19:21;;;;;;;14.93;8.05;;;1.90;93.80;;;;;;5028391;28;20204;-72
2020/12/26 00:21:47;;;;;;;20.45;8.77;;;1.90;93.60;;;;;;5015056;28;20266;-73
2020/12/26 00:24:13;;;;;;;17.87;8.23;;;1.90;93.70;;;;;;5026373;28;20193;-74
2020/12/26 00:26:39;;;;;;;23.27;10.30;;;1.90;93.60;;;;;;5026440;28;20857;-74
2020/12/26 00:29:05;;;;;;;15.90;8.30;;;1.80;93.80;;;;;;5027381;28;20513;-72
2020/12/26 00:31:30;;;;;;;17.87;8.60;;;1.70;93.80;;;;;;5027810;28;20423;-73
2020/12/26 00:33:56;;;;;;;19.97;7.80;;;1.60;93.90;;;;;;5025978;28;20244;-73
2020/12/26 00:36:22;;;;;;;17.60;8.10;;;1.50;94.30;;;;;;5027252;28;20189;-74
2020/12/26 00:38:47;;;;;;;15.43;8.33;;;1.50;94.40;;;;;;5027680;28;20196;-74
2020/12/26 00:41:14;;;;;;;17.53;8.93;;;1.40;94.70;;;;;;5027454;28;20636;-74
2020/12/26 00:43:40;;;;;;;22.08;8.32;;;1.40;95.00;;;;;;5030046;28;20216;-74
2020/12/26 00:46:05;;;;;;;20.15;9.45;;;1.30;95.20;;;;;;5029156;28;20573;-74
2020/12/26 00:48:31;;;;;;;22.97;9.53;;;1.30;95.50;;;;;;5028366;28;20193;-74
2020/12/26 00:50:57;;;;;;;18.80;8.70;;;1.20;95.50;;;;;;5025579;28;20192;-72
2020/12/26 00:53:23;;;;;;;18.10;8.50;;;1.20;95.70;;;;;;5014704;28;20749;-74
2020/12/26 00:55:48;;;;;;;22.13;8.67;;;1.30;95.70;;;;;;5027400;28;20223;-72
2020/12/26 00:58:14;;;;;;;17.13;9.60;;;1.30;95.60;;;;;;5027168;28;20193;-74
2020/12/26 01:00:39;;;;;;;20.33;9.03;;;1.20;95.60;;;;;;5027657;28;20200;-74
2020/12/26 01:03:05;;;;;;;20.40;8.70;;;1.20;95.70;;;;;;5027890;28;20292;-74
2020/12/26 01:05:31;;;;;;;21.13;9.47;;;1.20;95.80;;;;;;5027821;28;20200;-74
2020/12/26 01:07:57;;;;;;;18.17;8.60;;;1.20;96.00;;;;;;5026786;28;20221;-73
2020/12/26 01:10:22;;;;;;;13.43;8.63;;;1.30;96.10;;;;;;5026541;28;20192;-73
2020/12/26 01:12:49;;;;;;;16.23;8.20;;;1.30;96.00;;;;;;5025595;28;20363;-72
2020/12/26 01:15:16;;;;;;;17.98;8.80;;;1.30;95.80;;;;;;5026387;28;20530;-73
2020/12/26 01:17:42;;;;;;;16.65;8.27;;;1.20;95.60;;;;;;5025960;28;20200;-72
2020/12/26 01:20:08;;;;;;;27.08;9.63;;;1.20;95.70;;;;;;5027120;28;20186;-73
2020/12/26 01:22:37;;;;;;;25.57;10.37;;;1.10;95.80;;;;;;5030862;28;20226;-74
2020/12/26 01:25:06;;;;;;;21.02;9.68;;;1.10;95.90;;;;;;5024786;28;20225;-74
2020/12/26 01:27:32;;;;;;;21.35;8.60;;;1.00;96.10;;;;;;5033084;28;20675;-74
2020/12/26 01:29:58;;;;;;;22.60;9.57;;;1.00;96.30;;;;;;5034827;28;20637;-73
2020/12/26 01:32:27;;;;;;;19.47;9.20;;;1.00;96.40;;;;;;5031245;28;20209;-75
2020/12/26 01:34:57;;;;;;;20.25;9.25;;;0.90;96.50;;;;;;5028640;28;20181;-73
2020/12/26 01:37:23;;;;;;;15.75;7.90;;;0.90;96.50;;;;;;5023168;28;20194;-73
2020/12/26 01:39:49;;;;;;;22.97;10.43;;;0.80;96.50;;;;;;5008677;28;20186;-74
2020/12/26 01:42:15;;;;;;;19.20;8.90;;;0.70;96.70;;;;;;5007721;28;20237;-73
2020/12/26 01:44:40;;;;;;;21.70;9.70;;;0.70;96.90;;;;;;5008328;28;20197;-75
2020/12/26 01:47:06;;;;;;;22.13;10.10;;;0.60;97.20;;;;;;5008302;28;20236;-75
2020/12/26 01:49:34;;;;;;;22.20;10.02;;;0.60;97.20;;;;;;5018423;28;20478;-74
2020/12/26 01:52:01;;;;;;;20.88;9.77;;;0.70;97.30;;;;;;5011274;28;20205;-75
2020/12/26 01:54:27;;;;;;;22.77;10.75;;;0.70;97.40;;;;;;5012336;28;20248;-75
2020/12/26 01:56:53;;;;;;;24.85;10.90;;;0.70;97.40;;;;;;5024384;28;20279;-75
2020/12/26 01:59:19;;;;;;;32.42;11.15;;;0.70;97.40;;;;;;5032563;28;20194;-76
2020/12/26 02:01:44;;;;;;;30.37;10.13;;;0.70;97.50;;;;;;5032462;28;20556;-75
2020/12/26 02:04:11;;;;;;;20.63;8.47;;;0.80;97.60;;;;;;5019028;28;20193;-74
2020/12/26 02:06:52;;;;;;;27.27;12.30;;;0.90;97.50;;;;;;5013298;28;20300;-74
2020/12/26 02:09:17;;;;;;;25.00;10.48;;;1.00;97.30;;;;;;5012869;28;20225;-74
2020/12/26 02:11:44;;;;;;;19.40;9.77;;;1.10;97.10;;;;;;5019149;28;20201;-73
2020/12/26 02:14:09;;;;;;;24.85;10.18;;;1.10;96.90;;;;;;5032631;28;20208;-74
2020/12/26 02:16:49;;;;;;;20.10;9.63;;;1.10;96.80;;;;;;5032099;28;20189;-74
2020/12/26 02:19:17;;;;;;;18.10;10.18;;;1.20;96.70;;;;;;5032454;28;20803;-74
2020/12/26 02:21:44;;;;;;;25.65;10.73;;;1.30;96.40;;;;;;5030945;28;20255;-75
2020/12/26 02:24:10;;;;;;;24.10;10.60;;;1.20;96.00;;;;;;5031930;28;20193;-73
2020/12/26 02:26:37;;;;;;;22.80;9.90;;;1.20;96.10;;;;;;5031717;28;21009;-74
2020/12/26 02:29:04;;;;;;;26.17;11.30;;;1.30;96.10;;;;;;5032200;28;20716;-74
2020/12/26 02:31:30;;;;;;;22.60;10.65;;;1.30;95.90;;;;;;5033193;28;20192;-74
2020/12/26 02:33:56;;;;;;;21.40;9.53;;;1.30;95.90;;;;;;5030779;28;20186;-74
2020/12/26 02:36:22;;;;;;;23.70;9.97;;;1.30;95.80;;;;;;5016044;28;20432;-74
2020/12/26 02:38:48;;;;;;;24.02;11.48;;;1.30;95.80;;;;;;5031190;28;20274;-74
2020/12/26 02:41:14;;;;;;;23.63;10.23;;;1.30;95.90;;;;;;5037853;28;20185;-75
2020/12/26 02:43:40;;;;;;;24.00;9.65;;;1.30;95.80;;;;;;5038171;28;20224;-74
2020/12/26 02:46:06;;;;;;;23.90;11.00;;;1.40;95.80;;;;;;5033673;28;20189;-73
2020/12/26 02:48:32;;;;;;;22.80;11.25;;;1.40;95.70;;;;;;5032517;28;20473;-73
2020/12/26 02:50:58;;;;;;;21.80;10.35;;;1.40;95.70;;;;;;5031760;28;20671;-72
2020/12/26 02:53:24;;;;;;;31.10;12.20;;;1.40;95.80;;;;;;5035587;28;20198;-73
2020/12/26 02:55:51;;;;;;;29.88;11.70;;;1.40;95.70;;;;;;5033124;28;20188;-73
2020/12/26 02:58:17;;;;;;;26.23;11.82;;;1.30;95.60;;;;;;5033566;28;20190;-74
2020/12/26 03:00:43;;;;;;;26.95;11.00;;;1.30;95.70;;;;;;5019259;28;20189;-74
2020/12/26 03:03:08;;;;;;;24.10;9.70;;;1.30;95.80;;;;;;5024201;28;20229;-73
2020/12/26 03:05:34;;;;;;;27.20;11.43;;;1.30;95.80;;;;;;5037710;28;20243;-72
2020/12/26 03:08:00;;;;;;;31.93;10.57;;;1.30;95.70;;;;;;5014234;28;20472;-74
2020/12/26 03:10:26;;;;;;;21.83;10.47;;;1.40;95.80;;;;;;5020800;28;20223;-72
2020/12/26 03:12:52;;;;;;;26.73;10.80;;;1.30;95.70;;;;;;5031197;28;21004;-72
2020/12/26 03:15:18;;;;;;;27.40;11.80;;;1.30;95.70;;;;;;5030676;28;20420;-73
2020/12/26 03:17:43;;;;;;;31.30;11.90;;;1.30;95.80;;;;;;5030785;28;20195;-72
2020/12/26 03:20:09;;;;;;;24.07;10.90;;;1.30;95.70;;;;;;5030734;28;20565;-73
2020/12/26 03:22:35;;;;;;;26.60;11.03;;;1.20;95.70;;;;;;5029728;28;20320;-73
2020/12/26 03:25:01;;;;;;;28.97;11.27;;;1.20;95.80;;;;;;5030223;28;20426;-73
2020/12/26 03:27:26;;;;;;;33.77;10.80;;;1.20;95.90;;;;;;5030389;28;20335;-73
2020/12/26 03:29:53;;;;;;;22.53;11.20;;;1.20;96.00;;;;;;5021628;28;20221;-73
2020/12/26 03:32:20;;;;;;;30.63;10.27;;;1.20;96.20;;;;;;5026049;28;20618;-72
2020/12/26 03:34:46;;;;;;;28.98;10.88;;;1.20;96.10;;;;;;5028852;28;20205;-74
2020/12/26 03:37:11;;;;;;;23.17;10.70;;;1.20;96.20;;;;;;5030328;28;20656;-74
2020/12/26 03:39:37;;;;;;;19.60;9.47;;;1.30;96.20;;;;;;5029083;28;20614;-72
2020/12/26 03:42:07;;;;;;;20.67;9.60;;;1.30;96.20;;;;;;5030600;28;20213;-74
2020/12/26 03:44:33;;;;;;;24.20;10.32;;;1.40;96.20;;;;;;5029966;28;20220;-73
2020/12/26 03:46:59;;;;;;;29.73;11.60;;;1.40;96.00;;;;;;5030127;28;20578;-74
2020/12/26 03:49:25;;;;;;;21.57;10.20;;;1.30;95.80;;;;;;5028986;28;20436;-74
2020/12/26 03:51:51;;;;;;;27.02;10.75;;;1.40;95.70;;;;;;5030279;28;20204;-73
2020/12/26 03:54:17;;;;;;;22.97;8.53;;;1.40;95.20;;;;;;5019600;28;20182;-74
2020/12/26 03:56:44;;;;;;;19.58;9.70;;;1.40;95.10;;;;;;5026565;28;20423;-74
2020/12/26 03:59:10;;;;;;;21.70;10.85;;;1.40;95.10;;;;;;5029825;28;20193;-72
2020/12/26 04:01:36;;;;;;;20.95;10.00;;;1.40;95.00;;;;;;5028977;28;20213;-73
2020/12/26 04:04:02;;;;;;;27.20;10.30;;;1.40;95.00;;;;;;5030744;28;20192;-74
2020/12/26 04:06:28;;;;;;;20.45;8.90;;;1.30;95.00;;;;;;5029301;28;20420;-73
2020/12/26 04:08:54;;;;;;;23.02;8.73;;;1.30;95.20;;;;;;5029989;28;20652;-73
2020/12/26 04:11:20;;;;;;;19.20;9.03;;;1.30;95.40;;;;;;5016941;28;20193;-72
2020/12/26 04:13:45;;;;;;;21.43;9.80;;;1.30;95.40;;;;;;5028877;28;20315;-72
2020/12/26 04:16:11;;;;;;;22.83;10.00;;;1.30;95.10;;;;;;5026801;28;20223;-72
2020/12/26 04:18:38;;;;;;;22.10;9.70;;;1.40;95.20;;;;;;5028278;28;20215;-72
2020/12/26 04:21:03;;;;;;;21.55;8.77;;;1.40;95.00;;;;;;5029875;28;20451;-71
2020/12/26 04:23:29;;;;;;;29.50;9.60;;;1.40;94.90;;;;;;5028393;28;20974;-72
2020/12/26 04:25:55;;;;;;;27.83;9.17;;;1.40;94.80;;;;;;5027615;28;20324;-72
2020/12/26 04:28:21;;;;;;;27.40;9.73;;;1.40;94.80;;;;;;5029415;28;20209;-72
2020/12/26 04:30:46;;;;;;;24.30;9.53;;;1.50;94.80;;;;;;5029362;28;20358;-73
2020/12/26 04:33:12;;;;;;;22.73;10.30;;;1.50;94.60;;;;;;5028457;28;20205;-72
2020/12/26 04:35:38;;;;;;;20.23;9.50;;;1.50;94.60;;;;;;5025678;28;20185;-73
2020/12/26 04:38:03;;;;;;;18.40;9.20;;;1.50;94.50;;;;;;5029824;28;20193;-72
2020/12/26 04:40:29;;;;;;;26.63;9.87;;;1.50;94.50;;;;;;5029988;28;20943;-72
2020/12/26 04:42:56;;;;;;;17.77;9.10;;;1.60;94.40;;;;;;5029080;28;20217;-72
2020/12/26 04:45:22;;;;;;;17.40;9.20;;;1.60;94.10;;;;;;5030497;28;20250;-74
2020/12/26 04:48:04;;;;;;;19.97;8.83;;;1.60;93.40;;;;;;5032487;28;20304;-73
2020/12/26 04:50:34;;;;;;;25.40;9.60;;;1.60;93.10;;;;;;5031917;28;20841;-73
2020/12/26 04:53:05;;;;;;;23.85;9.60;;;1.50;93.20;;;;;;5035688;28;20211;-74
2020/12/26 04:55:46;;;;;;;18.58;9.32;;;1.50;93.60;;;;;;5030103;28;20186;-73
2020/12/26 04:58:13;;;;;;;24.25;9.23;;;1.50;94.10;;;;;;5026600;28;20182;-74
2020/12/26 05:00:40;;;;;;;22.98;9.35;;;1.50;94.20;;;;;;5008163;28;20212;-73
2020/12/26 05:03:07;;;;;;;21.95;9.13;;;1.40;94.40;;;;;;5025528;28;20209;-73
2020/12/26 05:05:38;;;;;;;20.17;9.30;;;1.40;94.60;;;;;;5019102;28;20193;-72
2020/12/26 05:08:09;;;;;;;22.98;10.15;;;1.50;94.70;;;;;;5008859;28;20296;-71
2020/12/26 05:10:36;;;;;;;20.30;9.02;;;1.50;94.60;;;;;;5020346;28;20178;-72
2020/12/26 05:13:04;;;;;;;24.42;9.77;;;1.50;94.40;;;;;;5027689;28;20700;-73
2020/12/26 05:15:31;;;;;;;27.52;9.43;;;1.40;94.30;;;;;;5028558;28;20571;-71
2020/12/26 05:17:56;;;;;;;24.58;10.00;;;1.50;94.60;;;;;;5028404;28;20213;-73
2020/12/26 05:20:24;;;;;;;25.07;10.80;;;1.50;94.60;;;;;;5027485;28;20215;-73
2020/12/26 05:23:07;;;;;;;25.85;10.15;;;1.50;94.30;;;;;;5029068;28;20472;-72
2020/12/26 05:25:33;;;;;;;25.67;9.15;;;1.50;94.10;;;;;;5013885;28;20646;-72
2020/12/26 05:28:13;;;;;;;20.00;10.10;;;1.50;94.10;;;;;;5028352;28;20201;-73
2020/12/26 05:30:40;;;;;;;49.80;12.35;;;1.50;94.10;;;;;;5028671;28;20446;-72
2020/12/26 05:33:07;;;;;;;29.30;11.05;;;1.40;94.30;;;;;;5027880;28;20240;-72
2020/12/26 05:35:44;;;;;;;27.80;10.48;;;1.50;94.40;;;;;;5028095;28;20246;-72
2020/12/26 05:38:22;;;;;;;29.58;11.13;;;1.50;94.30;;;;;;5028699;28;20204;-71
2020/12/26 05:40:56;;;;;;;31.33;10.95;;;1.60;94.40;;;;;;5028992;28;20547;-72
2020/12/26 05:43:23;;;;;;;34.03;12.35;;;1.60;94.40;;;;;;5028738;28;20224;-72
2020/12/26 05:45:50;;;;;;;29.33;11.70;;;1.60;94.30;;;;;;5027799;28;20528;-72
2020/12/26 05:48:18;;;;;;;29.20;12.27;;;1.60;94.40;;;;;;5029357;28;20213;-73
2020/12/26 05:50:45;;;;;;;28.77;10.07;;;1.60;94.30;;;;;;5029833;28;20606;-73
2020/12/26 05:53:15;;;;;;;27.58;11.20;;;1.60;94.40;;;;;;5031278;28;20230;-72
2020/12/26 05:55:45;;;;;;;33.20;12.50;;;1.60;94.30;;;;;;5034748;28;20177;-74
2020/12/26 05:58:18;;;;;;;44.50;13.75;;;1.60;94.40;;;;;;5030440;28;20557;-72
2020/12/26 06:00:43;;;;;;;26.60;10.90;;;1.70;94.40;;;;;;5031703;28;20208;-73
2020/12/26 06:03:30;;;;;;;25.63;11.43;;;1.60;94.50;;;;;;5045224;28;20209;-74
2020/12/26 06:06:01;;;;;;;29.27;12.00;;;1.50;94.60;;;;;;5042220;28;20608;-73
2020/12/26 06:08:28;;;;;;;25.23;10.88;;;1.60;94.70;;;;;;5029735;28;20213;-73
2020/12/26 06:10:57;;;;;;;34.00;12.23;;;1.50;94.70;;;;;;5041646;28;20667;-72
2020/12/26 06:13:25;;;;;;;32.05;12.27;;;1.40;94.70;;;;;;5027772;28;20213;-73
2020/12/26 06:15:56;;;;;;;26.50;11.90;;;1.40;94.90;;;;;;5027307;28;20676;-74
2020/12/26 06:18:24;;;;;;;35.55;13.13;;;1.30;94.90;;;;;;5014605;28;20201;-72
2020/12/26 06:20:54;;;;;;;29.30;12.52;;;1.30;95.10;;;;;;5028968;28;20530;-72
2020/12/26 06:23:23;;;;;;;25.55;10.85;;;1.30;95.20;;;;;;5036082;28;20221;-73
2020/12/26 06:25:51;;;;;;;29.42;11.95;;;1.30;95.20;;;;;;5028181;28;20190;-74
2020/12/26 06:28:25;;;;;;;30.58;12.18;;;1.20;95.40;;;;;;5028645;28;20225;-74
2020/12/26 06:31:00;;;;;;;32.95;11.75;;;1.10;95.40;;;;;;5040440;28;20180;-74
2020/12/26 06:33:28;;;;;;;33.33;12.60;;;1.10;95.70;;;;;;5029735;28;20216;-72
2020/12/26 06:35:56;;;;;;;26.60;11.00;;;1.10;95.90;;;;;;5010097;28;20196;-75
2020/12/26 06:38:29;;;;;;;32.30;12.85;;;1.00;96.00;;;;;;5022177;28;20181;-71
2020/12/26 06:40:59;;;;;;;37.00;11.57;;;1.10;96.10;;;;;;5032727;28;20235;-71
2020/12/26 06:43:56;;;;;;;37.60;12.23;;;1.10;96.10;;;;;;5032444;28;20248;-73
2020/12/26 06:46:22;;;;;;;24.65;11.80;;;1.10;96.10;;;;;;5030898;28;20188;-73
2020/12/26 06:48:49;;;;;;;36.13;12.03;;;1.00;96.00;;;;;;5031397;28;20173;-73
2020/12/26 06:51:24;;;;;;;30.92;10.88;;;1.00;96.10;;;;;;5030061;28;20185;-73
2020/12/26 06:53:51;;;;;;;23.73;10.48;;;1.00;96.30;;;;;;5030361;28;20663;-73
2020/12/26 06:56:32;;;;;;;30.83;13.05;;;1.00;96.40;;;;;;5029241;28;20193;-73
2020/12/26 06:58:59;;;;;;;41.60;14.02;;;1.00;96.40;;;;;;5022462;28;20323;-72
2020/12/26 07:01:25;;;;;;;25.30;10.85;;;1.00;96.30;;;;;;5027640;28;20214;-74
2020/12/26 07:04:19;;;;;;;23.75;10.48;;;1.10;96.30;;;;;;5020496;28;20232;-74
2020/12/26 07:06:54;;;;;;;25.77;10.65;;;1.00;96.00;;;;;;5028243;28;20216;-72
2020/12/26 07:09:41;;;;;;;28.27;11.93;;;0.90;96.10;;;;;;5026868;28;20202;-73
2020/12/26 07:12:10;;;;;;;33.05;12.10;;;0.90;96.20;;;;;;5020304;28;20227;-73
2020/12/26 07:14:36;;;;;;;30.88;10.50;;;0.90;96.30;;;;;;5029017;28;20272;-74
2020/12/26 07:17:14;;;;;;;31.42;10.68;;;0.90;96.40;;;;;;5029618;28;20264;-72
2020/12/26 07:19:44;;;;;;;33.85;11.35;;;0.80;96.40;;;;;;5029033;28;20565;-73
2020/12/26 07:22:21;;;;;;;28.00;11.23;;;0.80;96.50;;;;;;5025247;28;20237;-71
2020/12/26 07:24:48;;;;;;;28.70;12.50;;;0.80;96.70;;;;;;5017071;28;20196;-73
2020/12/26 07:27:21;;;;;;;30.23;11.40;;;0.90;96.80;;;;;;5020535;28;20225;-74
2020/12/26 07:29:49;;;;;;;30.70;11.30;;;0.90;96.80;;;;;;5026238;28;20185;-72
2020/12/26 07:32:40;;;;;;;33.05;12.05;;;0.90;96.80;;;;;;5026379;28;20215;-73
2020/12/26 07:35:12;;;;;;;39.97;12.95;;;0.80;96.50;;;;;;5025557;28;20184;-71
2020/12/26 07:37:38;;;;;;;30.33;12.88;;;0.90;96.50;;;;;;5027827;28;20196;-73
2020/12/26 07:40:05;;;;;;;41.42;12.90;;;0.80;96.50;;;;;;5027052;28;20201;-72
2020/12/26 07:42:32;;;;;;;25.30;11.82;;;0.90;96.70;;;;;;5013338;28;20213;-72
2020/12/26 07:44:58;;;;;;;33.67;11.73;;;0.90;96.80;;;;;;5025575;28;20785;-73
2020/12/26 07:47:24;;;;;;;37.40;13.40;;;0.90;96.80;;;;;;5012935;28;20224;-72
2020/12/26 07:49:59;;;;;;;26.30;11.30;;;0.90;96.70;;;;;;5012116;28;20665;-72
2020/12/26 07:52:25;;;;;;;32.13;11.60;;;1.10;96.70;;;;;;5017957;28;21035;-72
2020/12/26 07:55:01;;;;;;;39.58;12.45;;;1.20;96.40;;;;;;5025805;28;20189;-72
2020/12/26 07:57:28;;;;;;;22.20;11.43;;;1.30;96.20;;;;;;5024906;28;20185;-73
2020/12/26 07:59:54;;;;;;;28.15;11.23;;;1.40;96.10;;;;;;5022831;28;20193;-74
2020/12/26 08:02:20;;;;;;;28.80;12.30;;;1.50;95.60;;;;;;5010715;28;20217;-73
2020/12/26 08:04:47;;;;;;;30.17;12.37;;;1.50;95.20;;;;;;5008831;28;20201;-73
2020/12/26 08:07:14;;;;;;;34.17;12.55;;;1.50;94.70;;;;;;5009412;28;20479;-72
2020/12/26 08:09:52;;;;;;;27.05;10.95;;;1.60;94.40;;;;;;5009806;28;20205;-71
2020/12/26 08:12:19;;;;;;;58.20;12.02;;;1.70;94.20;;;;;;5020442;28;20286;-72
2020/12/26 08:14:45;;;;;;;27.60;11.20;;;1.80;94.00;;;;;;5027938;28;20276;-74
2020/12/26 08:17:11;;;;;;;28.23;11.82;;;1.80;93.80;;;;;;5027935;28;20251;-72
2020/12/26 08:19:38;;;;;;;23.27;11.00;;;1.80;93.80;;;;;;5030336;28;20200;-73
2020/12/26 08:22:04;;;;;;;28.52;11.05;;;1.90;93.80;;;;;;5031138;28;20212;-72
2020/12/26 08:24:30;;;;;;;20.77;9.68;;;1.80;92.60;;;;;;5026351;28;20952;-72
2020/12/26 08:26:56;;;;;;;20.23;8.00;;;1.70;92.20;;;;;;5028458;28;20209;-72
2020/12/26 08:29:31;;;;;;;15.98;7.97;;;1.70;91.70;;;;;;5027543;28;20188;-73
2020/12/26 08:32:05;;;;;;;16.85;7.78;;;1.60;90.80;;;;;;5025991;28;20212;-71
2020/12/26 08:34:52;;;;;;;16.70;7.97;;;1.60;90.80;;;;;;5014864;28;20184;-74
2020/12/26 08:37:27;;;;;;;18.05;8.10;;;1.60;90.70;;;;;;5027397;28;20412;-74
2020/12/26 08:40:03;;;;;;;19.55;8.32;;;1.60;90.70;;;;;;5025407;28;20312;-74
2020/12/26 08:42:29;;;;;;;21.40;8.43;;;1.60;90.80;;;;;;5027223;28;20230;-72
2020/12/26 08:44:56;;;;;;;17.55;8.18;;;1.60;90.80;;;;;;5026725;28;20553;-74
2020/12/26 08:47:29;;;;;;;21.15;8.73;;;1.60;90.90;;;;;;5026382;28;20213;-75
2020/12/26 08:49:56;;;;;;;25.23;9.32;;;1.60;90.80;;;;;;5027122;28;20217;-74
2020/12/26 08:52:26;;;;;;;17.50;9.32;;;1.70;90.80;;;;;;5021239;28;20229;-74
2020/12/26 08:55:07;;;;;;;22.73;9.68;;;1.70;90.60;;;;;;5008601;28;20257;-74
2020/12/26 08:57:33;;;;;;;21.40;9.80;;;1.70;90.70;;;;;;5022524;28;20199;-73
2020/12/26 09:00:42;;;;;;;31.00;9.00;;;1.80;90.60;;;;;;5033401;28;20193;-74
2020/12/26 09:03:07;;;;;;;22.02;9.98;;;1.80;90.30;;;;;;5050839;28;20221;-73
2020/12/26 09:05:34;;;;;;;16.03;8.00;;;1.90;89.90;;;;;;5041943;28;20210;-74
2020/12/26 09:08:05;;;;;;;13.27;7.50;;;1.90;89.60;;;;;;5041879;28;20220;-73
2020/12/26 09:10:31;;;;;;;13.63;6.25;;;1.90;88.10;;;;;;5022978;28;20219;-73
2020/12/26 09:13:07;;;;;;;17.50;7.47;;;2.00;86.90;;;;;;5016276;28;20227;-73
2020/12/26 09:15:53;;;;;;;17.15;8.52;;;2.10;86.20;;;;;;5036400;28;20188;-74
2020/12/26 09:18:24;;;;;;;14.45;7.68;;;2.20;85.70;;;;;;5035561;28;20196;-74
2020/12/26 09:20:57;;;;;;;16.85;8.43;;;2.20;85.30;;;;;;5023319;28;20794;-74
2020/12/26 09:23:29;;;;;;;19.25;7.85;;;2.30;85.90;;;;;;5023854;28;20228;-74
2020/12/26 09:26:11;;;;;;;13.10;7.35;;;2.50;85.90;;;;;;5008069;28;20286;-73
2020/12/26 09:28:53;;;;;;;14.48;7.30;;;2.50;85.60;;;;;;5032433;28;20280;-73
2020/12/26 09:31:28;;;;;;;21.33;8.32;;;2.60;85.70;;;;;;5022995;28;20203;-73
2020/12/26 09:33:55;;;;;;;23.40;9.40;;;2.60;84.70;;;;;;5027420;28;20211;-73
2020/12/26 09:36:23;;;;;;;22.50;8.90;;;2.50;85.90;;;;;;5027164;28;20646;-74
2020/12/26 09:38:50;;;;;;;15.73;8.48;;;2.60;86.60;;;;;;5031263;28;20263;-75
2020/12/26 09:41:18;;;;;;;15.15;9.70;;;2.60;86.90;;;;;;5030415;28;20245;-75
2020/12/26 09:43:46;;;;;;;19.15;8.98;;;2.70;87.10;;;;;;5030664;28;20229;-74
2020/12/26 09:46:12;;;;;;;22.30;9.15;;;2.70;86.90;;;;;;5028525;28;20200;-73
2020/12/26 09:48:38;;;;;;;17.13;9.30;;;2.80;86.90;;;;;;5025846;28;20271;-75
2020/12/26 09:51:10;;;;;;;18.63;9.00;;;2.80;86.90;;;;;;5019567;28;20197;-73
2020/12/26 09:53:35;;;;;;;18.42;8.60;;;2.80;87.10;;;;;;5029317;28;20201;-73
2020/12/26 09:56:01;;;;;;;22.57;8.70;;;2.80;87.40;;;;;;5028681;28;20320;-74
2020/12/26 09:58:27;;;;;;;22.80;8.23;;;2.90;87.30;;;;;;5030025;28;20185;-74
2020/12/26 10:00:53;;;;;;;21.27;9.93;;;2.90;87.10;;;;;;5030342;28;20185;-75
2020/12/26 10:03:18;;;;;;;18.73;8.00;;;3.00;87.30;;;;;;5030738;28;20647;-75
2020/12/26 10:05:44;;;;;;;17.00;8.30;;;3.00;87.00;;;;;;5030101;28;20208;-75
2020/12/26 10:08:10;;;;;;;19.50;8.43;;;3.00;87.10;;;;;;5031069;28;20477;-75
2020/12/26 10:10:35;;;;;;;17.17;8.43;;;3.20;87.00;;;;;;5029315;28;20185;-74
2020/12/26 10:13:01;;;;;;;17.40;7.40;;;3.20;86.30;;;;;;5029975;28;20288;-74
2020/12/26 10:15:27;;;;;;;15.20;6.97;;;3.30;86.20;;;;;;5032582;28;20290;-73
2020/12/26 10:17:52;;;;;;;13.33;7.57;;;3.40;85.30;;;;;;5030982;28;20189;-72
2020/12/26 10:20:18;;;;;;;15.33;8.20;;;3.50;85.50;;;;;;5031035;28;20189;-73
2020/12/26 10:22:44;;;;;;;16.33;8.97;;;3.60;85.20;;;;;;5032127;28;20216;-73
2020/12/26 10:25:09;;;;;;;14.50;7.90;;;3.70;84.90;;;;;;5030668;28;20239;-76
2020/12/26 10:27:35;;;;;;;14.70;7.03;;;3.90;83.80;;;;;;5032776;28;20284;-73
2020/12/26 10:30:01;;;;;;;13.47;7.30;;;3.90;81.80;;;;;;5033123;28;20369;-72
2020/12/26 10:32:27;;;;;;;11.13;5.80;;;4.00;81.70;;;;;;5032347;28;20300;-73
2020/12/26 10:34:52;;;;;;;12.77;6.00;;;4.00;80.00;;;;;;5030349;28;20233;-73
2020/12/26 10:37:19;;;;;;;11.20;5.37;;;3.90;79.50;;;;;;5032280;28;20196;-72
2020/12/26 10:39:46;;;;;;;10.73;6.50;;;4.00;80.50;;;;;;5032282;28;20185;-73
2020/12/26 10:42:12;;;;;;;9.45;5.82;;;4.10;80.30;;;;;;5034038;28;20459;-71
2020/12/26 10:44:37;;;;;;;16.17;6.60;;;4.10;79.70;;;;;;5033163;28;20201;-73
2020/12/26 10:47:03;;;;;;;16.53;5.87;;;4.10;80.20;;;;;;5036538;28;20219;-72
2020/12/26 10:49:29;;;;;;;10.43;6.47;;;4.30;80.00;;;;;;5038386;28;20192;-74
2020/12/26 10:51:54;;;;;;;12.03;6.40;;;4.40;79.30;;;;;;5033981;28;20259;-75
2020/12/26 10:54:20;;;;;;;14.97;6.77;;;4.60;78.70;;;;;;5031634;28;20239;-76
2020/12/26 10:56:49;;;;;;;14.63;5.80;;;4.50;76.70;;;;;;5034940;28;20217;-74
2020/12/26 10:59:15;;;;;;;11.60;5.90;;;4.40;76.40;;;;;;5031758;28;20185;-75
2020/12/26 11:01:41;;;;;;;13.80;6.50;;;4.50;77.10;;;;;;5013172;28;20491;-73
2020/12/26 11:04:07;;;;;;;11.40;6.37;;;4.50;77.00;;;;;;5012261;28;20499;-73
2020/12/26 11:06:33;;;;;;;11.23;5.60;;;4.60;76.20;;;;;;5030550;28;20508;-73
2020/12/26 11:08:59;;;;;;;14.93;5.80;;;4.60;75.50;;;;;;5032092;28;20191;-75
2020/12/26 11:11:25;;;;;;;15.37;5.30;;;4.50;75.10;;;;;;5030580;28;20531;-76
2020/12/26 11:13:51;;;;;;;12.70;5.33;;;4.50;75.40;;;;;;5026833;28;20188;-73
2020/12/26 11:16:17;;;;;;;8.43;5.20;;;4.60;75.40;;;;;;5027845;28;20579;-73
2020/12/26 11:18:44;;;;;;;9.27;4.90;;;4.80;75.40;;;;;;5019040;28;20443;-75
2020/12/26 11:21:17;;;;;;;9.27;4.80;;;4.90;73.90;;;;;;5031279;28;20455;-75
2020/12/26 11:23:43;;;;;;;7.87;4.90;;;4.90;72.10;;;;;;5018687;28;20494;-74
2020/12/26 11:26:11;;;;;;;9.90;4.97;;;4.70;71.40;;;;;;5030661;28;20428;-74
2020/12/26 11:28:37;;;;;;;10.40;5.53;;;4.70;73.00;;;;;;5033996;28;20477;-72
2020/12/26 11:31:03;;;;;;;10.77;6.00;;;4.80;73.60;;;;;;5033502;28;20459;-75
2020/12/26 11:33:29;;;;;;;12.73;6.00;;;4.90;73.50;;;;;;5035011;28;20482;-75
2020/12/26 11:35:54;;;;;;;11.60;4.73;;;4.80;72.70;;;;;;5032344;28;20238;-73
2020/12/26 11:38:20;;;;;;;8.43;5.10;;;4.90;71.70;;;;;;5033475;28;20192;-74
2020/12/26 11:40:46;;;;;;;7.73;4.50;;;4.90;71.30;;;;;;5027298;28;20186;-74
2020/12/26 11:43:11;;;;;;;8.00;4.90;;;5.00;70.80;;;;;;5022076;28;20261;-72
2020/12/26 11:45:37;;;;;;;10.03;4.80;;;4.80;70.50;;;;;;5012754;28;20186;-75
2020/12/26 11:48:04;;;;;;;9.20;5.30;;;4.70;71.30;;;;;;5012195;28;20790;-75
2020/12/26 11:50:29;;;;;;;10.83;5.00;;;4.70;71.40;;;;;;5015310;28;20189;-73
2020/12/26 11:52:55;;;;;;;9.60;5.20;;;4.80;71.80;;;;;;5017925;28;20818;-72
2020/12/26 11:55:21;;;;;;;9.13;4.83;;;4.70;70.70;;;;;;5011173;28;20273;-74
2020/12/26 11:57:47;;;;;;;14.60;5.77;;;4.70;71.10;;;;;;5031384;28;20181;-74
2020/12/26 12:00:13;;;;;;;8.40;4.33;;;4.80;71.40;;;;;;5025553;28;20552;-72
2020/12/26 12:02:39;;;;;;;9.10;4.13;;;4.70;69.50;;;;;;5012186;28;20468;-75
2020/12/26 12:05:05;;;;;;;8.00;4.47;;;4.60;69.10;;;;;;5024227;28;20433;-76
2020/12/26 12:07:31;;;;;;;9.17;4.30;;;4.50;70.40;;;;;;5010940;28;20239;-74
2020/12/26 12:09:57;;;;;;;9.17;4.90;;;4.50;69.80;;;;;;5010786;28;20456;-74
2020/12/26 12:12:24;;;;;;;9.37;4.90;;;4.50;71.30;;;;;;5024819;28;20213;-73
2020/12/26 12:14:50;;;;;;;9.17;5.07;;;4.50;71.60;;;;;;5030719;28;20427;-75
2020/12/26 12:17:15;;;;;;;11.50;4.90;;;4.50;71.40;;;;;;5030620;28;20427;-74
2020/12/26 12:19:41;;;;;;;9.70;5.60;;;4.50;71.80;;;;;;5030047;28;20537;-75
2020/12/26 12:22:07;;;;;;;11.23;6.17;;;4.60;72.60;;;;;;5028911;28;20212;-74
2020/12/26 12:24:33;;;;;;;14.27;7.93;;;4.50;73.60;;;;;;5029390;28;20977;-75
2020/12/26 12:26:58;;;;;;;10.70;6.20;;;4.50;74.00;;;;;;5029484;28;20466;-74
2020/12/26 12:29:24;;;;;;;10.53;5.80;;;4.70;74.30;;;;;;5029258;28;20284;-73
2020/12/26 12:31:50;;;;;;;11.37;5.37;;;4.80;74.00;;;;;;5028610;28;20604;-75
2020/12/26 12:34:15;;;;;;;12.17;6.30;;;4.80;74.00;;;;;;5023820;28;20336;-74
2020/12/26 12:36:41;;;;;;;9.27;5.43;;;4.90;74.30;;;;;;5007406;28;20208;-74
2020/12/26 12:39:08;;;;;;;10.40;5.20;;;4.80;74.00;;;;;;5026681;28;20547;-75
2020/12/26 12:41:34;;;;;;;13.07;5.77;;;4.90;73.90;;;;;;5017522;28;20181;-73
2020/12/26 12:43:59;;;;;;;10.40;5.00;;;5.00;73.50;;;;;;5029351;28;20501;-73
2020/12/26 12:46:25;;;;;;;8.87;5.63;;;5.00;71.40;;;;;;5027442;28;20420;-73
2020/12/26 12:48:51;;;;;;;9.17;4.93;;;5.10;69.20;;;;;;5029253;28;20220;-74